Flight Track Log - Related Links

Times and Time Zones

All times are in EDT time to prevent confusion due to time zone crossing. See the TAM3433 flight status page for this flight to view local times or setup timezone preferences in your user account.

Time Position Orientation Groundspeed Altitude Reporting Facility
EDT Latitude Longitude Course Direction KTS MPH feet Rate Location/Type
Wed 11:47:45 PM 0.0510 -51.0690 87° East 1 1  Level FlightAware ADS-B
Wed 11:48:06 PM 0.0510 -51.0700 270° West 2 2 117 Level FlightAware ADS-B
Wed 11:50:00 PM -0.0461 -50.8939 119° Southeast  Level Estimated
Wed 11:50:03 PM 0.0510 -51.0690 119° Southeast 7 8  Level FlightAware ADS-B
Wed 11:50:29 PM 0.0520 -51.0690 360° North 6 7 177 Level FlightAware ADS-B
Wed 11:50:58 PM 0.0520 -51.0700 270° West 8 9 196 Level FlightAware ADS-B
Wed 11:51:29 PM 0.0510 -51.0710 225° Southwest 19 22 222 Level FlightAware ADS-B
Wed 11:52:10 PM 0.0490 -51.0750 243° Southwest 24 28 259 Level FlightAware ADS-B
Wed 11:52:40 PM 0.0470 -51.0780 236° Southwest 25 29 333 Level FlightAware ADS-B
Wed 11:53:06 PM 0.0460 -51.0800 243° Southwest 13 15 421 Level FlightAware ADS-B
Wed 11:53:18 PM 0.0450 -51.0800 180° South 7 8 545 Level FlightAware ADS-B
Wed 11:53:46 PM 0.0460 -51.0790 45° Northeast 17 20 632 Level FlightAware ADS-B
Wed 11:54:15 PM 0.0530 -51.0690 55° Northeast 155 178 1,000 Level FlightAware ADS-B
Wed 11:54:34 PM 0.0600 -51.0570 60° Northeast 157 181 800 2,276 Climbing FlightAware ADS-B
Wed 11:54:44 PM 0.0620 -51.0510 72° East 165 190 1,100 1,500 Climbing FlightAware ADS-B
Wed 11:55:14 PM 0.0480 -51.0290 122° Southeast 205 236 1,800 1,286 Climbing FlightAware ADS-B
Wed 11:55:40 PM 0.0280 -51.0120 140° Southeast 243 280 2,300 1,929 Climbing FlightAware ADS-B
Wed 11:56:10 PM 0.0110 -50.9800 118° Southeast 263 303 3,600 3,164 Climbing FlightAware ADS-B
Wed 11:56:35 PM -0.0030 -50.9530 117° Southeast 259 298 5,200 3,771 Climbing FlightAware ADS-B
Wed 11:56:45 PM -0.0100 -50.9420 122° Southeast 258 297 5,800 2,850 Climbing FlightAware ADS-B
Wed 11:57:15 PM -0.0280 -50.9110 120° Southeast 272 313 7,100 2,700 Climbing FlightAware ADS-B
Wed 11:57:45 PM -0.0480 -50.8760 120° Southeast 280 322 8,500 2,700 Climbing FlightAware ADS-B
Wed 11:58:15 PM -0.0670 -50.8440 121° Southeast 287 330 9,800 2,571 Climbing FlightAware ADS-B
Wed 11:58:55 PM -0.0940 -50.7980 120° Southeast 295 339 11,500 2,612 Climbing FlightAware ADS-B
Wed 11:59:40 PM -0.1260 -50.7430 120° Southeast 301 346 13,500 2,700 Climbing FlightAware ADS-B
Thu 12:00:15 AM -0.1490 -50.7030 120° Southeast 301 346 15,100 2,118 Climbing FlightAware ADS-B
Thu 12:01:05 AM -0.1860 -50.6390 120° Southeast 322 371 16,500 2,067 Climbing FlightAware ADS-B
Thu 12:01:45 AM -0.2170 -50.5860 120° Southeast 322 371 18,200 2,259 Climbing FlightAware ADS-B
Thu 12:02:30 AM -0.2510 -50.5270 120° Southeast 324 373 19,700 1,906 Climbing FlightAware ADS-B
Thu 12:03:10 AM -0.2780 -50.4770 118° Southeast 330 380 20,900 1,902 Climbing FlightAware ADS-B
Thu 12:03:52 AM -0.3090 -50.4210 119° Southeast 330 380 22,300 1,800 Climbing FlightAware ADS-B
Thu 12:04:30 AM -0.3370 -50.3710 119° Southeast 339 390 23,300 1,408 Climbing FlightAware ADS-B
Thu 12:05:30 AM -0.3830 -50.2890 119° Southeast 355 409 24,600 1,020 Climbing FlightAware ADS-B
Thu 12:06:10 AM -0.4160 -50.2290 119° Southeast 381 438 25,000 250 Climbing FlightAware ADS-B
Thu 12:07:06 AM -0.4650 -50.1410 119° Southeast 384 442 25,000  Level FlightAware ADS-B
Thu 12:07:51 AM -0.4960 -50.0830 118° Southeast 385 443 25,000  Level FlightAware ADS-B
Thu 12:08:25 AM -0.4980 -50.0810 135° Southeast 386 444 25,000  Level FlightAware ADS-B
Thu 12:09:06 AM -0.5700 -49.9520 119° Southeast 382 440 25,000  Level FlightAware ADS-B
Thu 12:09:51 AM -0.6070 -49.8860 119° Southeast 383 441 25,000  Level FlightAware ADS-B
Thu 12:10:36 AM -0.6530 -49.8110 122° Southeast 387 445 25,000 -120 Level FlightAware ADS-B
Thu 12:11:31 AM -0.7090 -49.7340 126° Southeast 386 444 24,800 -545 Descending FlightAware ADS-B
Thu 12:12:26 AM -0.7500 -49.6770 126° Southeast 367 422 24,000 -1,642 Descending FlightAware ADS-B
Thu 12:13:06 AM -0.8050 -49.6020 126° Southeast 361 415 22,200 -1,723 Descending FlightAware ADS-B
Thu 12:14:07 AM -0.8580 -49.5270 125° Southeast 356 410 21,100 -1,539 Descending FlightAware ADS-B
Thu 12:16:00 AM -0.9466 -49.3484 116° Southeast  Level Estimated
Thu 12:17:00 AM -0.9937 -49.2536 116° Southeast  Level Estimated
Thu 12:18:00 AM -1.0408 -49.1587 116° Southeast  Level Estimated
Thu 12:19:00 AM -1.0878 -49.0639 116° Southeast  Level Estimated
Thu 12:20:00 AM -1.1349 -48.9691 116° Southeast  Level Estimated
Thu 12:21:00 AM -1.1819 -48.8742 116° Southeast  Level Estimated
Thu 12:21:29 AM -1.2620 -48.9700 116° Southeast 289 333 9,300  Level FlightAware ADS-B
Thu 12:21:59 AM -1.2890 -48.9320 125° Southeast 284 327 8,500 -1,527 Descending FlightAware ADS-B
Thu 12:22:24 AM -1.3060 -48.9090 126° Southeast 282 325 7,900 -679 Descending FlightAware ADS-B
Thu 12:22:52 AM -1.3240 -48.8830 125° Southeast 282 325 7,900 -977 Level FlightAware ADS-B
Thu 12:23:07 AM -1.3060 -48.9090 305° West 281 323 7,200 -1,000 Descending FlightAware ADS-B
Thu 12:23:40 AM -1.3600 -48.8280 124° Southeast 279 321 7,100 -1,457 Descending FlightAware ADS-B
Thu 12:24:17 AM -1.3860 -48.7870 122° Southeast 270 311 5,500 -1,500 Descending FlightAware ADS-B
Thu 12:24:44 AM -1.4010 -48.7630 122° Southeast 270 311 5,500 -806 Level FlightAware ADS-B
Thu 12:27:00 AM -1.3829 -48.5237 86° East  Level Estimated
Thu 12:27:15 AM -1.3860 -48.7870 86° East 2,000  Level FlightAware ADS-B
Thu 12:28:45 AM -1.4590 -48.5560 108° East 146 168 1,900 -51 Descending FlightAware ADS-B
Thu 12:29:13 AM -1.4470 -48.5450 43° Northeast 146 168 1,900 -737 Level FlightAware ADS-B
Thu 12:29:42 AM -1.4300 -48.5280 45° Northeast 139 160 1,200 -1,200 Descending FlightAware ADS-B
Thu 12:30:03 AM -1.4200 -48.5170 48° Northeast 138 159 900 -706 Descending FlightAware ADS-B
Thu 12:30:50 AM -1.4000 -48.4970 45° Northeast 146 168 400 -405 Descending FlightAware ADS-B
Thu 12:31:17 AM -1.3890 -48.4860 45° Northeast 146 168 400  Level FlightAware ADS-B
Thu 12:33:00 AM -1.3793 -48.4763 45° Northeast  Level Estimated

Login

Don't have an account? Register now (free) for customized features, flight alerts, and more!